Time;durP1;ratioP1;P1;durP2;ratioP2;P2;SDS_P1;SDS_P2;PMS_P1;PMS_P2;Temp;Humidity;BMP_temperature;BMP_pressure;BME280_temperature;BME280_humidity;BME280_pressure;Samples;Min_cycle;Max_cycle;Signal;HPM_P1;HPM_P2
2022/01/15 00:01:10;;;;;;;11.85;6.43;;;;;;;;;;4992992;28;20046;-79
2022/01/15 00:03:36;;;;;;;10.82;6.28;;;;;;;;;;4992817;28;20022;-80
2022/01/15 00:06:02;;;;;;;13.13;6.97;;;;;;;;;;4988817;28;20058;-80
2022/01/15 00:08:28;;;;;;;10.63;6.80;;;;;;;;;;4988976;28;20023;-80
2022/01/15 00:10:54;;;;;;;13.65;6.78;;;;;;;;;;4997816;28;20038;-80
2022/01/15 00:13:30;;;;;;;11.18;6.82;;;;;;;;;;5002824;28;20026;-80
2022/01/15 00:16:25;;;;;;;11.60;6.15;;;;;;;;;;5004268;28;20041;-80
2022/01/15 00:19:07;;;;;;;13.35;6.65;;;;;;;;;;4989063;28;20058;-80
2022/01/15 00:21:33;;;;;;;12.45;6.63;;;;;;;;;;4997813;28;20057;-79
2022/01/15 00:23:59;;;;;;;11.63;6.45;;;;;;;;;;5001534;28;20022;-79
2022/01/15 00:26:26;;;;;;;10.65;5.90;;;;;;;;;;5002747;28;20031;-79
2022/01/15 00:28:52;;;;;;;10.48;6.15;;;;;;;;;;5002059;28;20081;-79
2022/01/15 00:31:19;;;;;;;10.85;6.43;;;;;;;;;;4996809;28;20023;-78
2022/01/15 00:33:45;;;;;;;11.45;5.82;;;;;;;;;;4986209;28;20033;-80
2022/01/15 00:36:11;;;;;;;11.82;6.55;;;;;;;;;;4981446;28;20036;-80
2022/01/15 00:38:37;;;;;;;11.43;6.32;;;;;;;;;;4982295;28;20027;-79
2022/01/15 00:41:03;;;;;;;13.02;7.32;;;;;;;;;;4992062;28;20034;-79
2022/01/15 00:43:30;;;;;;;11.23;6.20;;;;;;;;;;5000449;28;20069;-79
2022/01/15 00:45:57;;;;;;;12.90;7.60;;;;;;;;;;5001673;28;20030;-80
2022/01/15 00:48:23;;;;;;;10.07;6.78;;;;;;;;;;5003862;28;20031;-80
2022/01/15 00:50:50;;;;;;;10.23;6.05;;;;;;;;;;4994366;28;20031;-81
2022/01/15 00:53:16;;;;;;;10.10;6.10;;;;;;;;;;5006999;28;20285;-80
2022/01/15 00:55:42;;;;;;;11.10;5.97;;;;;;;;;;4992646;28;20051;-80
2022/01/15 00:58:11;;;;;;;11.40;6.35;;;;;;;;;;4990632;28;20110;-81
2022/01/15 01:00:39;;;;;;;9.52;5.70;;;;;;;;;;4995508;28;20049;-81
2022/01/15 01:03:06;;;;;;;12.82;6.13;;;;;;;;;;4997834;28;20026;-80
2022/01/15 01:05:32;;;;;;;10.43;5.13;;;;;;;;;;5005090;28;20030;-79
2022/01/15 01:07:58;;;;;;;10.55;5.78;;;;;;;;;;4998133;28;20046;-79
2022/01/15 01:10:50;;;;;;;9.85;5.32;;;;;;;;;;4991839;28;20572;-80
2022/01/15 01:24:01;;;;;;;9.52;5.10;;;;;;;;;;4988777;28;20406;-81
2022/01/15 01:26:43;;;;;;;9.63;5.63;;;;;;;;;;4987041;28;20027;-81
2022/01/15 01:31:58;;;;;;;10.27;5.47;;;;;;;;;;5005577;28;20038;-80
2022/01/15 01:34:27;;;;;;;10.75;6.03;;;;;;;;;;5008383;28;20081;-80
2022/01/15 01:37:04;;;;;;;10.45;5.72;;;;;;;;;;5005783;28;20023;-80
2022/01/15 01:40:38;;;;;;;10.50;6.55;;;;;;;;;;5006438;28;20022;-80
2022/01/15 01:42:37;;;;;;;9.95;5.97;;;;;;;;;;4998302;28;20036;-79
2022/01/15 01:45:14;;;;;;;11.55;6.10;;;;;;;;;;4987101;28;20033;-80
2022/01/15 01:47:42;;;;;;;12.50;5.95;;;;;;;;;;4988537;28;20031;-80
2022/01/15 01:50:13;;;;;;;11.23;6.80;;;;;;;;;;5002137;28;20041;-79
2022/01/15 01:52:39;;;;;;;11.30;5.88;;;;;;;;;;5006090;28;20090;-80
2022/01/15 01:55:06;;;;;;;12.05;6.35;;;;;;;;;;4991787;28;20027;-79
2022/01/15 01:57:33;;;;;;;12.95;6.85;;;;;;;;;;4987045;28;20054;-79
2022/01/15 01:59:59;;;;;;;10.50;5.88;;;;;;;;;;4996862;28;20844;-80
2022/01/15 02:02:25;;;;;;;10.52;6.35;;;;;;;;;;4990261;28;20050;-79
2022/01/15 02:04:51;;;;;;;9.98;5.88;;;;;;;;;;4985263;28;20070;-80
2022/01/15 02:07:18;;;;;;;12.65;6.47;;;;;;;;;;4986792;28;20509;-79
2022/01/15 02:09:44;;;;;;;12.15;6.18;;;;;;;;;;4991334;28;20042;-79
2022/01/15 02:12:10;;;;;;;11.23;6.15;;;;;;;;;;5004946;28;20034;-79
2022/01/15 02:14:36;;;;;;;9.18;5.68;;;;;;;;;;4995812;28;20026;-80
2022/01/15 02:17:03;;;;;;;11.30;6.13;;;;;;;;;;5007971;28;20026;-80
2022/01/15 02:19:33;;;;;;;11.80;6.43;;;;;;;;;;5005496;28;20399;-79
2022/01/15 02:24:44;;;;;;;10.63;5.78;;;;;;;;;;4996872;28;20069;-79
2022/01/15 02:27:10;;;;;;;13.00;6.05;;;;;;;;;;4990911;28;20026;-79
2022/01/15 02:29:36;;;;;;;9.43;5.15;;;;;;;;;;4998978;28;20346;-80
2022/01/15 02:32:02;;;;;;;10.18;6.05;;;;;;;;;;5007300;28;20022;-82
2022/01/15 02:34:28;;;;;;;11.27;6.47;;;;;;;;;;4989112;28;20027;-80
2022/01/15 02:36:55;;;;;;;10.02;6.25;;;;;;;;;;4992852;28;20034;-80
2022/01/15 02:39:22;;;;;;;12.95;6.82;;;;;;;;;;5004111;28;20022;-80
2022/01/15 02:41:48;;;;;;;11.73;6.53;;;;;;;;;;4984261;28;20030;-79
2022/01/15 02:44:19;;;;;;;11.90;6.40;;;;;;;;;;4998497;28;20034;-79
2022/01/15 02:49:15;;;;;;;11.82;6.50;;;;;;;;;;5005960;28;20038;-80
2022/01/15 02:51:41;;;;;;;12.40;6.72;;;;;;;;;;5004143;28;20105;-79
2022/01/15 02:54:09;;;;;;;11.15;6.53;;;;;;;;;;4992607;28;20058;-80
2022/01/15 02:56:39;;;;;;;10.40;6.25;;;;;;;;;;4985842;28;20046;-79
2022/01/15 02:59:07;;;;;;;11.68;6.80;;;;;;;;;;4983928;28;20087;-80
2022/01/15 03:01:34;;;;;;;11.88;6.70;;;;;;;;;;5000358;28;20045;-79
2022/01/15 03:04:00;;;;;;;13.40;6.43;;;;;;;;;;4995832;28;20084;-80
2022/01/15 03:06:26;;;;;;;10.68;7.20;;;;;;;;;;5003506;28;20568;-80
2022/01/15 03:08:53;;;;;;;12.93;7.32;;;;;;;;;;4991144;28;20086;-79
2022/01/15 03:11:21;;;;;;;13.05;7.43;;;;;;;;;;5001528;28;20121;-79
2022/01/15 03:13:47;;;;;;;12.93;6.95;;;;;;;;;;4991543;28;20029;-80
2022/01/15 03:16:21;;;;;;;12.10;7.15;;;;;;;;;;4986714;28;20030;-79
2022/01/15 03:18:48;;;;;;;13.52;7.82;;;;;;;;;;4998337;28;20054;-80
2022/01/15 03:21:14;;;;;;;14.60;7.32;;;;;;;;;;4993328;28;20082;-80
2022/01/15 03:23:41;;;;;;;14.18;7.82;;;;;;;;;;4986448;28;20077;-80
2022/01/15 03:26:13;;;;;;;13.90;8.07;;;;;;;;;;4984855;28;20030;-79
2022/01/15 03:28:39;;;;;;;12.98;8.35;;;;;;;;;;4985358;28;20027;-80
2022/01/15 03:31:05;;;;;;;14.52;7.88;;;;;;;;;;4998361;28;20447;-79
2022/01/15 03:33:32;;;;;;;10.23;6.38;;;;;;;;;;4995885;28;20018;-80
2022/01/15 03:35:58;;;;;;;12.00;7.05;;;;;;;;;;5001777;28;20022;-79
2022/01/15 03:38:24;;;;;;;10.50;6.57;;;;;;;;;;5003472;28;20044;-80
2022/01/15 03:40:53;;;;;;;10.57;5.75;;;;;;;;;;4999611;28;20030;-79
2022/01/15 03:43:19;;;;;;;10.93;6.50;;;;;;;;;;4993508;28;20037;-79
2022/01/15 03:45:45;;;;;;;10.55;6.25;;;;;;;;;;5006020;28;20033;-80
2022/01/15 03:48:11;;;;;;;9.18;5.35;;;;;;;;;;5002349;28;20098;-80
2022/01/15 03:50:37;;;;;;;9.88;5.70;;;;;;;;;;4998920;28;20023;-80
2022/01/15 03:53:03;;;;;;;8.63;4.85;;;;;;;;;;5001333;28;20063;-80
2022/01/15 03:55:30;;;;;;;11.00;5.63;;;;;;;;;;4986467;28;20107;-82
2022/01/15 03:57:57;;;;;;;10.30;5.15;;;;;;;;;;4999312;28;20058;-80
2022/01/15 04:00:25;;;;;;;9.73;5.43;;;;;;;;;;5006883;28;20015;-80
2022/01/15 04:02:51;;;;;;;9.13;5.55;;;;;;;;;;4999898;28;20030;-80
2022/01/15 04:05:17;;;;;;;9.45;5.03;;;;;;;;;;4987250;28;20448;-81
2022/01/15 04:07:44;;;;;;;8.38;5.05;;;;;;;;;;4996467;28;20026;-81
2022/01/15 04:10:10;;;;;;;10.52;5.35;;;;;;;;;;5004982;28;20026;-80
2022/01/15 04:12:37;;;;;;;9.02;4.53;;;;;;;;;;4986362;28;20478;-79
2022/01/15 04:15:03;;;;;;;8.25;5.05;;;;;;;;;;4985476;28;20030;-80
2022/01/15 04:17:30;;;;;;;9.65;4.90;;;;;;;;;;5000453;28;20023;-79
2022/01/15 04:19:57;;;;;;;9.45;5.03;;;;;;;;;;5005219;28;20138;-79
2022/01/15 04:22:23;;;;;;;12.68;5.38;;;;;;;;;;5005359;28;20469;-80
2022/01/15 04:24:49;;;;;;;10.73;5.57;;;;;;;;;;4989892;28;20089;-80
2022/01/15 04:27:15;;;;;;;9.23;4.40;;;;;;;;;;4994858;28;20034;-80
2022/01/15 04:29:42;;;;;;;10.32;4.68;;;;;;;;;;5006939;28;20022;-79
2022/01/15 04:32:08;;;;;;;8.25;4.50;;;;;;;;;;5005704;28;20086;-80
2022/01/15 04:34:34;;;;;;;9.13;5.03;;;;;;;;;;5007277;28;20026;-80
2022/01/15 04:37:08;;;;;;;9.07;5.22;;;;;;;;;;5005411;28;20026;-79
2022/01/15 04:39:34;;;;;;;9.18;4.90;;;;;;;;;;5006944;28;20057;-78
2022/01/15 04:42:01;;;;;;;9.73;4.88;;;;;;;;;;5005316;28;20030;-79
2022/01/15 04:44:27;;;;;;;11.05;5.25;;;;;;;;;;5004867;28;20089;-78
2022/01/15 04:46:53;;;;;;;8.55;4.82;;;;;;;;;;4990499;28;20035;-78
2022/01/15 04:49:19;;;;;;;7.75;4.55;;;;;;;;;;4986498;28;20066;-79
2022/01/15 04:51:45;;;;;;;7.05;4.05;;;;;;;;;;4998317;28;20492;-80
2022/01/15 04:54:11;;;;;;;7.75;4.75;;;;;;;;;;5004191;28;20038;-79
2022/01/15 04:56:38;;;;;;;9.63;5.25;;;;;;;;;;4995154;28;20038;-80
2022/01/15 04:59:04;;;;;;;8.32;4.70;;;;;;;;;;4998869;28;20041;-79
2022/01/15 05:01:30;;;;;;;7.82;4.38;;;;;;;;;;4989056;28;20099;-80
2022/01/15 05:03:56;;;;;;;8.27;4.47;;;;;;;;;;4988835;28;20070;-80
2022/01/15 05:06:22;;;;;;;7.57;4.60;;;;;;;;;;4987358;28;20030;-79
2022/01/15 05:08:52;;;;;;;9.77;4.90;;;;;;;;;;4986410;28;20065;-79
2022/01/15 05:11:30;;;;;;;7.93;4.30;;;;;;;;;;4995653;28;20084;-79
2022/01/15 05:13:56;;;;;;;10.55;4.60;;;;;;;;;;4989857;28;20050;-79
2022/01/15 05:16:24;;;;;;;8.85;4.97;;;;;;;;;;4987094;28;20390;-80
2022/01/15 05:18:51;;;;;;;9.27;5.57;;;;;;;;;;4996636;28;20142;-80
2022/01/15 05:21:17;;;;;;;8.73;5.03;;;;;;;;;;5007830;28;20030;-79
2022/01/15 05:23:43;;;;;;;10.00;4.88;;;;;;;;;;5008651;28;20114;-80
2022/01/15 05:26:11;;;;;;;8.98;4.60;;;;;;;;;;5007420;28;20054;-80
2022/01/15 05:28:37;;;;;;;7.95;4.35;;;;;;;;;;5003620;28;20023;-80
2022/01/15 05:31:03;;;;;;;7.95;4.32;;;;;;;;;;4994116;28;20035;-79
2022/01/15 05:33:35;;;;;;;7.63;4.32;;;;;;;;;;4991777;28;20034;-79
2022/01/15 05:36:05;;;;;;;8.85;4.90;;;;;;;;;;4987407;28;20097;-82
2022/01/15 05:38:34;;;;;;;8.90;4.68;;;;;;;;;;4997821;28;20139;-80
2022/01/15 05:41:00;;;;;;;8.40;4.75;;;;;;;;;;4998559;28;20065;-79
2022/01/15 05:43:27;;;;;;;11.25;5.53;;;;;;;;;;5005754;28;20052;-80
2022/01/15 05:45:53;;;;;;;11.63;5.30;;;;;;;;;;5008476;28;20142;-80
2022/01/15 05:48:19;;;;;;;7.93;4.50;;;;;;;;;;4989597;28;20134;-80
2022/01/15 05:50:47;;;;;;;10.32;4.93;;;;;;;;;;4996762;28;20094;-80
2022/01/15 05:53:13;;;;;;;7.97;4.72;;;;;;;;;;4996166;28;20451;-80
2022/01/15 05:55:40;;;;;;;7.82;4.53;;;;;;;;;;4990354;28;20117;-80
2022/01/15 05:58:09;;;;;;;9.65;5.07;;;;;;;;;;4994945;28;20535;-80
2022/01/15 06:00:35;;;;;;;9.18;5.25;;;;;;;;;;4999233;28;20492;-79
2022/01/15 06:03:01;;;;;;;10.88;5.93;;;;;;;;;;5006673;28;20029;-80
2022/01/15 06:05:27;;;;;;;10.35;5.55;;;;;;;;;;4995826;28;20059;-80
2022/01/15 06:07:54;;;;;;;8.82;4.90;;;;;;;;;;4992144;28;20026;-80
2022/01/15 06:10:21;;;;;;;11.05;5.70;;;;;;;;;;4998933;28;20037;-79
2022/01/15 06:12:47;;;;;;;10.38;5.63;;;;;;;;;;5005327;28;20076;-79
2022/01/15 06:15:14;;;;;;;11.10;6.30;;;;;;;;;;5000041;28;20139;-80
2022/01/15 06:17:43;;;;;;;11.02;6.20;;;;;;;;;;5005538;28;20033;-80
2022/01/15 06:20:11;;;;;;;9.38;5.43;;;;;;;;;;5001075;28;20014;-80
2022/01/15 06:22:37;;;;;;;11.35;5.20;;;;;;;;;;5001266;28;20066;-80
2022/01/15 06:25:03;;;;;;;8.52;5.18;;;;;;;;;;4995608;28;20125;-80
2022/01/15 06:27:30;;;;;;;8.95;5.00;;;;;;;;;;5004996;28;20030;-80
2022/01/15 06:29:56;;;;;;;9.45;5.15;;;;;;;;;;4993154;28;20119;-80
2022/01/15 06:32:23;;;;;;;8.95;4.90;;;;;;;;;;4997518;28;20451;-80
2022/01/15 06:34:49;;;;;;;8.57;5.13;;;;;;;;;;4990102;28;20027;-80
2022/01/15 06:37:16;;;;;;;10.13;5.85;;;;;;;;;;4988887;28;20022;-80
2022/01/15 06:39:42;;;;;;;9.00;4.80;;;;;;;;;;4999092;28;20256;-81
2022/01/15 06:42:08;;;;;;;8.13;5.15;;;;;;;;;;4985434;28;20026;-80
2022/01/15 06:44:35;;;;;;;9.70;5.53;;;;;;;;;;4994559;28;20026;-80
2022/01/15 06:47:01;;;;;;;7.97;4.43;;;;;;;;;;5002220;28;20022;-79
2022/01/15 06:49:27;;;;;;;8.32;5.03;;;;;;;;;;5001895;28;20022;-80
2022/01/15 06:51:54;;;;;;;9.25;4.32;;;;;;;;;;4992481;28;20473;-80
2022/01/15 06:54:20;;;;;;;8.13;4.85;;;;;;;;;;4998641;28;20029;-79
2022/01/15 06:56:48;;;;;;;10.13;4.85;;;;;;;;;;4999193;28;20051;-79
2022/01/15 06:59:14;;;;;;;8.15;5.05;;;;;;;;;;4993890;28;20031;-80
2022/01/15 07:01:41;;;;;;;8.15;4.68;;;;;;;;;;4995562;28;20034;-80
2022/01/15 07:04:07;;;;;;;9.95;4.53;;;;;;;;;;4995579;28;20033;-80
2022/01/15 07:06:36;;;;;;;11.30;5.30;;;;;;;;;;4986066;28;20030;-80
2022/01/15 07:09:02;;;;;;;9.20;5.80;;;;;;;;;;4991204;28;20030;-80
2022/01/15 07:11:31;;;;;;;12.35;6.63;;;;;;;;;;4994325;28;20015;-80
2022/01/15 07:13:57;;;;;;;8.93;5.68;;;;;;;;;;4993412;28;20527;-80
2022/01/15 07:16:23;;;;;;;9.38;5.47;;;;;;;;;;5015333;28;20089;-80
2022/01/15 07:18:49;;;;;;;11.50;6.20;;;;;;;;;;4985430;28;20106;-80
2022/01/15 07:21:15;;;;;;;9.27;5.35;;;;;;;;;;4997676;28;20452;-80
2022/01/15 07:23:42;;;;;;;9.88;5.93;;;;;;;;;;5000964;28;20027;-80
2022/01/15 07:26:08;;;;;;;9.60;5.85;;;;;;;;;;5001307;28;20366;-80
2022/01/15 07:28:35;;;;;;;10.25;5.38;;;;;;;;;;5000986;28;20030;-80
2022/01/15 07:31:01;;;;;;;9.95;5.20;;;;;;;;;;4993443;28;20030;-79
2022/01/15 07:33:27;;;;;;;9.63;5.25;;;;;;;;;;4986981;28;20027;-80
2022/01/15 07:35:55;;;;;;;13.30;7.28;;;;;;;;;;5000136;28;20049;-80
2022/01/15 07:38:21;;;;;;;11.57;6.85;;;;;;;;;;4995399;28;20469;-79
2022/01/15 07:40:48;;;;;;;12.93;7.57;;;;;;;;;;4993689;28;20023;-80
2022/01/15 07:43:14;;;;;;;10.10;5.70;;;;;;;;;;4992853;28;20027;-80
2022/01/15 07:45:40;;;;;;;9.70;5.57;;;;;;;;;;4982149;28;20042;-80
2022/01/15 07:48:07;;;;;;;9.18;6.13;;;;;;;;;;4993028;28;20045;-80
2022/01/15 07:50:33;;;;;;;9.80;6.40;;;;;;;;;;4989576;28;20090;-78
2022/01/15 07:52:59;;;;;;;10.60;6.35;;;;;;;;;;4994663;28;20027;-79
2022/01/15 07:55:26;;;;;;;10.68;6.30;;;;;;;;;;4987394;28;20552;-79
2022/01/15 07:57:52;;;;;;;11.52;5.55;;;;;;;;;;4981447;28;20050;-79
2022/01/15 08:00:19;;;;;;;14.93;8.25;;;;;;;;;;4987401;28;20153;-78
2022/01/15 08:02:45;;;;;;;13.25;7.32;;;;;;;;;;5001460;28;20044;-79
2022/01/15 08:05:12;;;;;;;11.85;7.13;;;;;;;;;;4999305;28;20440;-80
2022/01/15 08:07:40;;;;;;;13.60;7.15;;;;;;;;;;5000497;28;20054;-80
2022/01/15 08:10:07;;;;;;;13.77;7.18;;;;;;;;;;4991826;28;20379;-79
2022/01/15 08:12:35;;;;;;;10.40;6.55;;;;;;;;;;5001512;28;20023;-80
2022/01/15 08:15:01;;;;;;;11.25;6.20;;;;;;;;;;4990537;28;20037;-80
2022/01/15 08:17:29;;;;;;;11.80;7.03;;;;;;;;;;5001188;28;20030;-79
2022/01/15 08:19:55;;;;;;;16.75;7.55;;;;;;;;;;5004662;28;20392;-81
2022/01/15 08:22:21;;;;;;;15.70;7.43;;;;;;;;;;5003887;28;20508;-79
2022/01/15 08:24:50;;;;;;;13.98;7.60;;;;;;;;;;4986451;28;20031;-79
2022/01/15 08:27:16;;;;;;;15.38;8.60;;;;;;;;;;4992202;28;20072;-78
2022/01/15 08:29:42;;;;;;;12.18;6.93;;;;;;;;;;5004599;28;20030;-80
2022/01/15 08:32:08;;;;;;;14.30;7.10;;;;;;;;;;5003096;28;20689;-78
2022/01/15 08:34:35;;;;;;;14.00;7.43;;;;;;;;;;5004707;28;20025;-80
2022/01/15 08:37:01;;;;;;;13.38;7.00;;;;;;;;;;5005101;28;20026;-80
2022/01/15 08:39:27;;;;;;;18.15;7.43;;;;;;;;;;5007437;28;20030;-80
2022/01/15 08:41:53;;;;;;;11.55;7.40;;;;;;;;;;5009177;28;20015;-80
2022/01/15 08:44:21;;;;;;;13.65;7.63;;;;;;;;;;5004329;28;20496;-80
2022/01/15 08:46:47;;;;;;;12.73;7.45;;;;;;;;;;5007657;28;20441;-80
2022/01/15 08:49:13;;;;;;;11.52;6.85;;;;;;;;;;5007260;28;20034;-80
2022/01/15 08:51:40;;;;;;;11.18;6.45;;;;;;;;;;4992312;28;20042;-81
2022/01/15 08:54:06;;;;;;;9.65;5.28;;;;;;;;;;5005539;28;20030;-80
2022/01/15 08:56:32;;;;;;;8.93;5.15;;;;;;;;;;5007495;28;20046;-80
2022/01/15 08:58:58;;;;;;;10.60;5.65;;;;;;;;;;5003310;28;20034;-80
2022/01/15 09:01:24;;;;;;;9.68;5.32;;;;;;;;;;4985041;28;20027;-80
2022/01/15 09:03:50;;;;;;;14.30;6.35;;;;;;;;;;4985630;28;20034;-80
2022/01/15 09:06:19;;;;;;;10.77;5.35;;;;;;;;;;4984785;28;20445;-80
2022/01/15 09:08:45;;;;;;;10.13;5.05;;;;;;;;;;4987299;28;20046;-81
2022/01/15 09:11:11;;;;;;;18.00;5.93;;;;;;;;;;4985189;28;20034;-80
2022/01/15 09:13:38;;;;;;;9.70;5.32;;;;;;;;;;4985781;28;20456;-81
2022/01/15 09:16:04;;;;;;;13.82;5.47;;;;;;;;;;5002912;28;20026;-80
2022/01/15 09:18:30;;;;;;;10.88;5.70;;;;;;;;;;5003222;28;20477;-80
2022/01/15 09:20:56;;;;;;;9.80;5.35;;;;;;;;;;5005053;28;20105;-80
2022/01/15 09:23:22;;;;;;;10.07;6.00;;;;;;;;;;5005318;28;20504;-81
2022/01/15 09:25:50;;;;;;;10.80;6.28;;;;;;;;;;5004720;28;20038;-81
2022/01/15 09:31:01;;;;;;;8.40;5.32;;;;;;;;;;4990501;28;20102;-81
2022/01/15 09:33:28;;;;;;;11.40;6.28;;;;;;;;;;5005404;28;20029;-81
2022/01/15 09:35:54;;;;;;;9.52;6.07;;;;;;;;;;5005712;28;20024;-80
2022/01/15 09:38:21;;;;;;;8.18;5.28;;;;;;;;;;4999946;28;20037;-80
2022/01/15 09:40:47;;;;;;;14.85;6.47;;;;;;;;;;4987379;28;20404;-80
2022/01/15 09:43:15;;;;;;;13.43;6.95;;;;;;;;;;4993314;28;20033;-80
2022/01/15 09:45:42;;;;;;;8.98;5.22;;;;;;;;;;5001366;28;20047;-81
2022/01/15 09:48:08;;;;;;;12.52;5.97;;;;;;;;;;4986215;28;20039;-82
2022/01/15 09:50:36;;;;;;;10.70;5.72;;;;;;;;;;4987238;28;20034;-80
2022/01/15 09:53:02;;;;;;;9.50;5.63;;;;;;;;;;4985076;28;20062;-78
2022/01/15 09:55:29;;;;;;;10.80;5.97;;;;;;;;;;5002882;28;20022;-79
2022/01/15 09:57:55;;;;;;;10.57;5.82;;;;;;;;;;4990222;28;20416;-79
2022/01/15 10:00:23;;;;;;;9.73;4.85;;;;;;;;;;4991671;28;20401;-79
2022/01/15 10:02:50;;;;;;;8.38;4.38;;;;;;;;;;5003652;28;20030;-79
2022/01/15 10:05:17;;;;;;;11.27;4.80;;;;;;;;;;4993772;28;20064;-79
2022/01/15 10:08:04;;;;;;;8.57;4.95;;;;;;;;;;4986219;28;20026;-79
2022/01/15 10:10:31;;;;;;;7.85;4.28;;;;;;;;;;4995368;28;20474;-79
2022/01/15 10:13:10;;;;;;;8.98;4.70;;;;;;;;;;4984448;28;20031;-80
2022/01/15 10:15:37;;;;;;;8.77;4.63;;;;;;;;;;4984538;28;20034;-80
2022/01/15 10:18:17;;;;;;;7.47;4.35;;;;;;;;;;4984800;28;20030;-79
2022/01/15 10:20:43;;;;;;;8.55;5.00;;;;;;;;;;4994880;28;20041;-79
2022/01/15 10:23:16;;;;;;;8.63;4.22;;;;;;;;;;5006364;28;20026;-79
2022/01/15 10:25:42;;;;;;;10.23;5.43;;;;;;;;;;5003302;28;20026;-80
2022/01/15 10:28:09;;;;;;;8.48;4.85;;;;;;;;;;4986980;28;20039;-80
2022/01/15 10:30:36;;;;;;;9.10;4.88;;;;;;;;;;4994234;28;20027;-80
2022/01/15 10:33:02;;;;;;;9.20;4.82;;;;;;;;;;5002393;28;20093;-81
2022/01/15 10:35:39;;;;;;;8.07;4.45;;;;;;;;;;5003361;28;20015;-79
2022/01/15 10:38:07;;;;;;;10.20;4.57;;;;;;;;;;4987788;28;20027;-79
2022/01/15 10:40:41;;;;;;;9.13;4.90;;;;;;;;;;4992055;28;20030;-80
2022/01/15 10:43:09;;;;;;;17.48;7.47;;;;;;;;;;5003376;28;20098;-80
2022/01/15 10:45:46;;;;;;;9.82;5.50;;;;;;;;;;5003836;28;20030;-79
2022/01/15 10:48:19;;;;;;;9.27;5.38;;;;;;;;;;4992309;28;20030;-80
2022/01/15 10:50:54;;;;;;;8.45;5.15;;;;;;;;;;4993242;28;20451;-80
2022/01/15 10:53:34;;;;;;;8.48;4.90;;;;;;;;;;5003865;28;20041;-80
2022/01/15 10:56:01;;;;;;;8.85;5.10;;;;;;;;;;4998310;28;20045;-80
2022/01/15 10:58:27;;;;;;;11.18;5.45;;;;;;;;;;4991620;28;20027;-80
2022/01/15 11:00:53;;;;;;;11.63;5.18;;;;;;;;;;4984795;28;20031;-80
2022/01/15 11:03:20;;;;;;;7.97;4.50;;;;;;;;;;4993556;28;20022;-80
2022/01/15 11:05:50;;;;;;;9.88;5.85;;;;;;;;;;4993635;28;20617;-80
2022/01/15 11:08:25;;;;;;;8.07;4.25;;;;;;;;;;4998747;28;20038;-81
2022/01/15 11:10:53;;;;;;;7.15;3.30;;;;;;;;;;4994024;28;20122;-80
2022/01/15 11:13:24;;;;;;;7.57;3.95;;;;;;;;;;5001773;28;20485;-80
2022/01/15 11:15:54;;;;;;;5.93;3.53;;;;;;;;;;5001756;28;20023;-80
2022/01/15 11:18:24;;;;;;;7.50;3.90;;;;;;;;;;4992269;28;20023;-80
2022/01/15 11:20:52;;;;;;;7.75;3.55;;;;;;;;;;4992927;28;20404;-80
2022/01/15 11:23:19;;;;;;;6.95;3.22;;;;;;;;;;4998294;28;20034;-81
2022/01/15 11:25:45;;;;;;;9.85;3.92;;;;;;;;;;4985179;28;20469;-80
2022/01/15 11:28:12;;;;;;;6.72;3.78;;;;;;;;;;5004159;28;20030;-80
2022/01/15 11:30:38;;;;;;;7.10;3.80;;;;;;;;;;5009527;28;20058;-79
2022/01/15 11:33:04;;;;;;;7.97;4.47;;;;;;;;;;5000183;28;20045;-80
2022/01/15 11:35:41;;;;;;;8.07;4.28;;;;;;;;;;4981791;28;20023;-81
2022/01/15 11:38:08;;;;;;;7.50;4.18;;;;;;;;;;4996439;28;20057;-81
2022/01/15 11:40:35;;;;;;;7.07;4.05;;;;;;;;;;4989175;28;20027;-81
2022/01/15 11:43:20;;;;;;;9.02;4.32;;;;;;;;;;4984103;28;20561;-80
2022/01/15 11:45:46;;;;;;;8.55;4.25;;;;;;;;;;4984044;28;20034;-81
2022/01/15 11:48:23;;;;;;;8.70;4.60;;;;;;;;;;4989484;28;20129;-81
2022/01/15 11:51:08;;;;;;;7.30;4.15;;;;;;;;;;4993937;28;20037;-82
2022/01/15 11:54:04;;;;;;;7.93;4.20;;;;;;;;;;4987312;28;20041;-81
2022/01/15 11:56:42;;;;;;;7.00;4.30;;;;;;;;;;4898351;29;20096;-82
2022/01/15 11:59:26;;;;;;;7.32;3.85;;;;;;;;;;4889021;29;20028;-81
2022/01/15 12:01:54;;;;;;;7.22;4.35;;;;;;;;;;4900898;29;20105;-81
2022/01/15 12:04:22;;;;;;;6.90;3.78;;;;;;;;;;4871763;29;20096;-81
2022/01/15 12:07:06;;;;;;;8.30;4.35;;;;;;;;;;4893289;29;20036;-82
2022/01/15 12:09:40;;;;;;;8.27;4.30;;;;;;;;;;4901533;29;20045;-81
2022/01/15 12:12:06;;;;;;;7.53;4.40;;;;;;;;;;4888916;29;20036;-81
2022/01/15 12:14:51;;;;;;;6.53;4.13;;;;;;;;;;4905742;29;20071;-81
2022/01/15 12:17:23;;;;;;;9.38;4.72;;;;;;;;;;4887924;29;20130;-82
2022/01/15 12:19:50;;;;;;;8.57;4.68;;;;;;;;;;4888103;29;20056;-80
2022/01/15 12:22:36;;;;;;;7.80;3.83;;;;;;;;;;4896459;29;20036;-79
2022/01/15 12:25:03;;;;;;;7.40;4.07;;;;;;;;;;4904163;29;20036;-82
2022/01/15 12:27:30;;;;;;;8.80;4.30;;;;;;;;;;4870552;29;20542;-81
2022/01/15 12:30:00;;;;;;;7.72;4.00;;;;;;;;;;4899805;29;20033;-81
2022/01/15 12:32:27;;;;;;;7.95;4.35;;;;;;;;;;4906270;28;20045;-81
2022/01/15 12:34:53;;;;;;;7.65;4.30;;;;;;;;;;4994787;28;20030;-81
2022/01/15 12:37:19;;;;;;;9.38;3.72;;;;;;;;;;4984463;28;20088;-80
2022/01/15 12:39:45;;;;;;;8.32;4.78;;;;;;;;;;4989268;28;20101;-81
2022/01/15 12:42:16;;;;;;;8.35;4.72;;;;;;;;;;4994058;28;20030;-80
2022/01/15 12:44:44;;;;;;;6.65;3.95;;;;;;;;;;4987825;28;20457;-80
2022/01/15 12:47:10;;;;;;;8.57;3.72;;;;;;;;;;4993855;28;20022;-81
2022/01/15 12:49:39;;;;;;;7.03;3.90;;;;;;;;;;4992212;28;20037;-80
2022/01/15 12:52:12;;;;;;;8.18;4.10;;;;;;;;;;4997743;28;20042;-80
2022/01/15 12:54:39;;;;;;;6.78;3.72;;;;;;;;;;5003564;28;20027;-80
2022/01/15 12:57:06;;;;;;;7.60;3.70;;;;;;;;;;5004501;28;20409;-80
2022/01/15 12:59:36;;;;;;;7.60;4.15;;;;;;;;;;4989876;28;20038;-83
2022/01/15 13:02:02;;;;;;;6.75;3.88;;;;;;;;;;4985536;28;20026;-79
2022/01/15 13:04:29;;;;;;;7.22;4.28;;;;;;;;;;4984277;28;20441;-81
2022/01/15 13:07:02;;;;;;;7.32;3.90;;;;;;;;;;4985397;28;20031;-80
2022/01/15 13:09:28;;;;;;;;;;;;;;;;;;4985072;28;20041;-79
2022/01/15 13:11:57;;;;;;;6.78;4.07;;;;;;;;;;4998733;28;19909;-80
2022/01/15 13:14:23;;;;;;;6.47;3.33;;;;;;;;;;4993544;28;20042;-79
2022/01/15 13:16:50;;;;;;;7.07;3.85;;;;;;;;;;4986267;28;20023;-80
2022/01/15 13:19:16;;;;;;;6.88;4.03;;;;;;;;;;5003480;28;20033;-80
2022/01/15 13:21:45;;;;;;;7.65;4.05;;;;;;;;;;5001449;28;20031;-80
2022/01/15 13:24:11;;;;;;;5.82;3.10;;;;;;;;;;5003162;28;20033;-80
2022/01/15 13:26:48;;;;;;;7.25;4.18;;;;;;;;;;5005209;28;20489;-79
2022/01/15 13:29:16;;;;;;;7.00;3.70;;;;;;;;;;4997628;28;20023;-79
2022/01/15 13:31:46;;;;;;;7.03;3.60;;;;;;;;;;4985388;28;20030;-80
2022/01/15 13:34:13;;;;;;;9.70;3.80;;;;;;;;;;4988637;28;20023;-81
2022/01/15 13:36:48;;;;;;;5.70;3.53;;;;;;;;;;5001288;28;20022;-80
2022/01/15 13:39:15;;;;;;;7.38;3.60;;;;;;;;;;5002219;28;20030;-80
2022/01/15 13:41:42;;;;;;;6.15;3.72;;;;;;;;;;4986560;28;20031;-81
2022/01/15 13:44:09;;;;;;;8.40;4.20;;;;;;;;;;4995580;28;20041;-80
2022/01/15 13:46:42;;;;;;;6.85;4.07;;;;;;;;;;5004274;28;20058;-80
2022/01/15 13:49:19;;;;;;;7.75;4.70;;;;;;;;;;5002629;28;20022;-81
2022/01/15 13:54:33;;;;;;;8.00;4.32;;;;;;;;;;4984218;28;20046;-80
2022/01/15 13:57:04;;;;;;;8.18;4.50;;;;;;;;;;4992785;28;20457;-79
2022/01/15 13:59:31;;;;;;;7.18;4.30;;;;;;;;;;5002302;28;20061;-80
2022/01/15 14:02:00;;;;;;;7.95;4.82;;;;;;;;;;5002458;28;20057;-80
2022/01/15 14:04:29;;;;;;;7.05;4.63;;;;;;;;;;5003746;28;20022;-80
2022/01/15 14:06:57;;;;;;;8.43;4.93;;;;;;;;;;5008655;28;20012;-79
2022/01/15 14:09:24;;;;;;;6.97;4.32;;;;;;;;;;5007923;28;20021;-80
2022/01/15 14:12:04;;;;;;;10.13;5.10;;;;;;;;;;5004094;28;20022;-80
2022/01/15 14:14:34;;;;;;;8.60;4.60;;;;;;;;;;5003712;28;20146;-82
2022/01/15 14:17:04;;;;;;;8.40;3.85;;;;;;;;;;5001744;28;20030;-80
2022/01/15 14:20:02;;;;;;;7.60;4.40;;;;;;;;;;4994622;28;20018;-80
2022/01/15 14:22:28;;;;;;;8.50;5.03;;;;;;;;;;4988025;28;20058;-80
2022/01/15 14:25:10;;;;;;;5.82;3.70;;;;;;;;;;4996538;28;20150;-80
2022/01/15 14:27:37;;;;;;;8.50;4.73;;;;;;;;;;4990595;28;20043;-79
2022/01/15 14:30:04;;;;;;;9.35;4.55;;;;;;;;;;4987077;28;20023;-79
2022/01/15 14:32:30;;;;;;;9.23;4.75;;;;;;;;;;4987476;28;20033;-80
2022/01/15 14:34:57;;;;;;;9.73;4.38;;;;;;;;;;4987812;28;20031;-80
2022/01/15 14:37:24;;;;;;;8.45;4.57;;;;;;;;;;4987859;28;20507;-81
2022/01/15 14:39:54;;;;;;;9.63;5.07;;;;;;;;;;5000599;28;20030;-81
2022/01/15 14:42:23;;;;;;;9.63;4.72;;;;;;;;;;4984747;28;20037;-81
2022/01/15 14:44:49;;;;;;;8.57;5.35;;;;;;;;;;4985624;28;20031;-81
2022/01/15 14:47:16;;;;;;;9.75;4.47;;;;;;;;;;4998355;28;20037;-80
2022/01/15 14:49:42;;;;;;;8.25;4.68;;;;;;;;;;4985587;28;20228;-80
2022/01/15 14:52:08;;;;;;;9.82;4.93;;;;;;;;;;4995325;28;20073;-80
2022/01/15 14:54:34;;;;;;;9.73;4.82;;;;;;;;;;5006512;28;20022;-80
2022/01/15 14:57:00;;;;;;;9.27;4.97;;;;;;;;;;5008110;28;20047;-81
2022/01/15 14:59:26;;;;;;;8.30;4.80;;;;;;;;;;5003813;28;20037;-80
2022/01/15 15:01:53;;;;;;;9.30;4.90;;;;;;;;;;5002303;28;20025;-80
2022/01/15 15:04:19;;;;;;;7.53;4.22;;;;;;;;;;4999670;28;20034;-80
2022/01/15 15:06:45;;;;;;;7.53;4.53;;;;;;;;;;5001638;28;20031;-80
2022/01/15 15:09:15;;;;;;;8.77;4.68;;;;;;;;;;5001933;28;20409;-80